createdAt,value
2019-02-14T00:00:48.146Z,23.10
2019-02-14T00:03:14.997Z,23.20
2019-02-14T00:05:41.764Z,23.20
2019-02-14T00:08:08.593Z,23.10
2019-02-14T00:10:35.430Z,22.90
2019-02-14T00:13:02.161Z,23.00
2019-02-14T00:15:28.866Z,23.00
2019-02-14T00:17:55.636Z,23.20
2019-02-14T00:20:22.387Z,23.20
2019-02-14T00:22:49.229Z,23.20
2019-02-14T00:25:15.960Z,23.20
2019-02-14T00:27:42.711Z,23.30
2019-02-14T00:30:09.449Z,23.40
2019-02-14T00:32:36.289Z,23.30
2019-02-14T00:35:03.130Z,23.30
2019-02-14T00:37:29.871Z,23.50
2019-02-14T00:39:56.702Z,23.50
2019-02-14T00:42:23.455Z,23.30
2019-02-14T00:44:50.178Z,23.40
2019-02-14T00:47:16.930Z,23.20
2019-02-14T00:49:43.661Z,23.30
2019-02-14T00:52:10.508Z,23.30
2019-02-14T00:54:37.239Z,23.40
2019-02-14T00:57:03.992Z,23.50
2019-02-14T00:59:30.730Z,23.40
2019-02-14T01:01:57.572Z,23.30
2019-02-14T01:04:24.437Z,23.30
2019-02-14T01:06:51.248Z,23.30
2019-02-14T01:09:17.993Z,22.90
2019-02-14T01:11:44.834Z,22.90
2019-02-14T01:14:11.575Z,23.00
2019-02-14T01:16:38.415Z,23.10
2019-02-14T01:19:05.188Z,23.20
2019-02-14T01:21:31.895Z,23.00
2019-02-14T01:23:58.598Z,23.20
2019-02-14T01:26:25.379Z,22.90
2019-02-14T01:28:52.212Z,23.10
2019-02-14T01:31:18.945Z,23.30
2019-02-14T01:33:45.645Z,23.30
2019-02-14T01:36:12.423Z,23.10
2019-02-14T01:38:39.170Z,23.20
2019-02-14T01:41:06.004Z,23.20
2019-02-14T01:43:32.749Z,23.10
2019-02-14T01:45:59.595Z,23.20
2019-02-14T01:48:26.323Z,23.10
2019-02-14T01:50:52.962Z,23.20
2019-02-14T01:53:19.816Z,23.20
2019-02-14T01:55:46.541Z,23.30
2019-02-14T01:58:13.290Z,23.30
2019-02-14T02:00:40.132Z,23.50
2019-02-14T02:03:07.071Z,23.50
2019-02-14T02:05:33.920Z,23.70
2019-02-14T02:08:00.645Z,23.90
2019-02-14T02:10:27.308Z,24.00
2019-02-14T02:12:54.135Z,24.20
2019-02-14T02:15:20.875Z,24.30
2019-02-14T02:17:48.252Z,24.40
2019-02-14T02:20:15.252Z,24.40
2019-02-14T02:22:42.212Z,24.50
2019-02-14T02:25:09.138Z,24.50
2019-02-14T02:27:36.004Z,24.40
2019-02-14T02:30:02.839Z,24.40
2019-02-14T02:32:29.575Z,24.40
2019-02-14T02:34:56.331Z,24.40
2019-02-14T02:37:23.177Z,24.40
2019-02-14T02:39:49.895Z,24.30
2019-02-14T02:42:16.650Z,24.40
2019-02-14T02:44:43.373Z,24.50
2019-02-14T02:47:10.115Z,24.30
2019-02-14T02:49:36.851Z,24.20
2019-02-14T02:52:03.596Z,24.30
2019-02-14T02:54:30.646Z,24.40
2019-02-14T02:56:57.391Z,24.40
2019-02-14T02:59:24.179Z,24.30
2019-02-14T03:01:50.961Z,24.40
2019-02-14T03:04:17.709Z,24.40
2019-02-14T03:06:44.551Z,24.50
2019-02-14T03:09:11.287Z,24.50
2019-02-14T03:11:38.034Z,24.50
2019-02-14T03:14:04.872Z,24.60
2019-02-14T03:16:31.611Z,24.60
2019-02-14T03:18:58.453Z,24.40
2019-02-14T03:21:25.192Z,24.40
2019-02-14T03:23:51.932Z,24.40
2019-02-14T03:26:18.670Z,24.40
2019-02-14T03:28:45.369Z,24.40
2019-02-14T03:31:12.151Z,24.30
2019-02-14T03:33:38.878Z,24.40
2019-02-14T03:36:05.626Z,24.40
2019-02-14T03:38:32.367Z,24.40
2019-02-14T03:40:59.603Z,24.40
2019-02-14T03:43:26.449Z,24.20
2019-02-14T03:45:53.200Z,24.20
2019-02-14T03:48:19.927Z,24.00
2019-02-14T03:50:46.779Z,24.10
2019-02-14T03:53:13.624Z,24.00
2019-02-14T03:55:40.462Z,23.80
2019-02-14T03:58:07.205Z,23.70
2019-02-14T04:00:33.935Z,23.60
2019-02-14T04:03:00.833Z,23.80
2019-02-14T04:05:27.617Z,24.00
2019-02-14T04:07:54.473Z,24.10
2019-02-14T04:10:21.405Z,24.20
2019-02-14T04:12:48.153Z,24.40
2019-02-14T04:15:14.994Z,24.30
2019-02-14T04:17:41.927Z,24.40
2019-02-14T04:20:08.722Z,24.50
2019-02-14T04:22:35.507Z,24.50
2019-02-14T04:25:02.243Z,24.50
2019-02-14T04:27:28.891Z,24.60
2019-02-14T04:29:55.727Z,24.50
2019-02-14T04:32:22.985Z,24.40
2019-02-14T04:34:49.827Z,24.40
2019-02-14T04:37:16.555Z,24.20
2019-02-14T04:39:43.313Z,24.20
2019-02-14T04:42:10.038Z,24.00
2019-02-14T04:44:36.884Z,24.10
2019-02-14T04:47:03.728Z,24.10
2019-02-14T04:49:30.470Z,24.00
2019-02-14T04:51:57.196Z,24.20
2019-02-14T04:54:23.957Z,24.10
2019-02-14T04:56:50.776Z,24.00
2019-02-14T04:59:17.412Z,24.10
2019-02-14T05:01:44.065Z,23.90
2019-02-14T05:04:10.903Z,24.00
2019-02-14T05:06:44.225Z,24.00
2019-02-14T05:09:06.171Z,24.10
2019-02-14T05:11:32.970Z,24.00
2019-02-14T05:13:59.806Z,24.00
2019-02-14T05:16:26.648Z,23.80
2019-02-14T05:18:53.592Z,23.70
2019-02-14T05:21:20.325Z,23.70
2019-02-14T05:23:47.178Z,23.80
2019-02-14T05:26:13.912Z,23.80
2019-02-14T05:28:40.760Z,23.70
2019-02-14T05:31:07.590Z,23.70
2019-02-14T05:33:34.359Z,23.70
2019-02-14T05:36:01.064Z,23.70
2019-02-14T05:38:27.805Z,23.70
2019-02-14T05:40:54.543Z,23.70
2019-02-14T05:43:21.284Z,23.50
2019-02-14T05:45:48.337Z,23.50
2019-02-14T05:48:15.079Z,23.40
2019-02-14T05:50:41.919Z,23.40
2019-02-14T05:53:08.712Z,23.50
2019-02-14T05:55:35.509Z,23.40
2019-02-14T05:58:02.241Z,23.40
2019-02-14T06:00:29.070Z,23.50
2019-02-14T06:02:55.709Z,23.50
2019-02-14T06:05:22.482Z,23.50
2019-02-14T06:07:49.303Z,23.40
2019-02-14T06:10:15.990Z,23.50
2019-02-14T06:12:42.678Z,23.50
2019-02-14T06:15:09.609Z,23.50
2019-02-14T06:17:36.563Z,23.40
2019-02-14T06:20:03.301Z,23.40
2019-02-14T06:22:30.143Z,23.40
2019-02-14T06:24:56.874Z,23.30
2019-02-14T06:27:23.624Z,23.30
2019-02-14T06:29:50.383Z,23.30
2019-02-14T06:32:17.090Z,23.20
2019-02-14T06:34:43.728Z,23.10
2019-02-14T06:37:10.581Z,23.00
2019-02-14T06:39:37.428Z,23.00
2019-02-14T06:42:04.200Z,23.10
2019-02-14T06:44:30.991Z,23.20
2019-02-14T06:46:57.634Z,23.20
2019-02-14T06:49:24.379Z,23.30
2019-02-14T06:51:51.223Z,23.50
2019-02-14T06:54:17.953Z,23.40
2019-02-14T06:56:44.689Z,23.50
2019-02-14T06:59:11.542Z,23.50
2019-02-14T07:01:38.389Z,23.50
2019-02-14T07:04:05.329Z,23.50
2019-02-14T07:06:32.059Z,23.60
2019-02-14T07:08:58.799Z,23.70
2019-02-14T07:11:25.544Z,23.80
2019-02-14T07:13:52.277Z,23.90
2019-02-14T07:16:19.014Z,23.90
2019-02-14T07:18:45.650Z,23.60
2019-02-14T07:21:12.388Z,23.80
2019-02-14T07:23:39.026Z,23.70
2019-02-14T07:26:05.771Z,23.50
2019-02-14T07:28:32.403Z,23.60
2019-02-14T07:30:59.141Z,23.60
2019-02-14T07:33:25.778Z,23.70
2019-02-14T07:35:52.631Z,23.70
2019-02-14T07:38:19.464Z,23.70
2019-02-14T07:40:46.201Z,23.90
2019-02-14T07:43:12.906Z,24.00
2019-02-14T07:45:41.271Z,24.10
2019-02-14T07:48:08.057Z,24.30
2019-02-14T07:50:34.906Z,24.40
2019-02-14T07:53:01.753Z,24.50
2019-02-14T07:55:28.489Z,24.70
2019-02-14T07:57:55.217Z,24.80
2019-02-14T08:00:21.970Z,24.90
2019-02-14T08:02:48.706Z,24.90
2019-02-14T08:05:15.404Z,25.10
2019-02-14T08:07:42.189Z,25.20
2019-02-14T08:10:08.927Z,25.10
2019-02-14T08:12:35.654Z,25.20
2019-02-14T08:15:02.418Z,25.10
2019-02-14T08:17:29.131Z,25.20
2019-02-14T08:19:55.877Z,25.00
2019-02-14T08:22:22.623Z,25.30
2019-02-14T08:24:49.368Z,25.50
2019-02-14T08:27:16.202Z,25.70
2019-02-14T08:29:43.045Z,25.80
2019-02-14T08:32:09.785Z,26.00
2019-02-14T08:34:36.523Z,26.10
2019-02-14T08:37:03.262Z,26.10
2019-02-14T08:39:30.003Z,26.30
2019-02-14T08:41:56.739Z,26.50
2019-02-14T08:44:23.474Z,26.70
2019-02-14T08:46:50.220Z,27.00
2019-02-14T08:49:16.950Z,27.10
2019-02-14T08:51:43.688Z,27.50
2019-02-14T08:54:10.331Z,27.80
2019-02-14T08:56:37.075Z,28.00
2019-02-14T08:59:03.819Z,27.90
2019-02-14T09:01:30.549Z,27.80
2019-02-14T09:03:57.295Z,27.70
2019-02-14T09:06:24.137Z,27.80
2019-02-14T09:08:50.976Z,27.80
2019-02-14T09:11:17.816Z,27.70
2019-02-14T09:13:44.517Z,27.80
2019-02-14T09:16:11.298Z,27.80
2019-02-14T09:18:38.035Z,28.10
2019-02-14T09:21:04.769Z,28.30
2019-02-14T09:23:31.505Z,28.40
2019-02-14T09:25:58.254Z,28.30
2019-02-14T09:28:24.960Z,28.20
2019-02-14T09:30:51.731Z,27.80
2019-02-14T09:33:18.464Z,27.60
2019-02-14T09:35:45.218Z,27.50
2019-02-14T09:38:11.948Z,27.60
2019-02-14T09:40:38.690Z,27.60
2019-02-14T09:43:05.559Z,27.50
2019-02-14T09:45:32.678Z,27.60
2019-02-14T09:47:59.694Z,27.70
2019-02-14T09:50:26.483Z,27.80
2019-02-14T09:52:53.381Z,27.90
2019-02-14T09:55:20.150Z,27.90
2019-02-14T09:57:46.892Z,27.90
2019-02-14T10:00:13.731Z,28.00
2019-02-14T10:02:40.432Z,28.10
2019-02-14T10:05:07.116Z,28.00
2019-02-14T10:07:33.948Z,28.10
2019-02-14T10:10:00.789Z,28.50
2019-02-14T10:12:27.628Z,28.60
2019-02-14T10:14:54.319Z,28.60
2019-02-14T10:17:22.438Z,28.80
2019-02-14T10:19:49.238Z,28.90
2019-02-14T10:25:01.437Z,28.70
2019-02-14T10:27:28.138Z,28.50
2019-02-14T10:29:54.975Z,28.50
2019-02-14T10:32:21.707Z,28.40
2019-02-14T10:34:48.345Z,28.10
2019-02-14T10:37:15.291Z,28.10
2019-02-14T10:39:42.040Z,28.10
2019-02-14T10:42:08.907Z,28.10
2019-02-14T10:44:35.824Z,28.30
2019-02-14T10:47:02.555Z,28.50
2019-02-14T10:49:29.300Z,28.20
2019-02-14T10:51:56.042Z,28.50
2019-02-14T10:54:22.774Z,29.10
2019-02-14T10:56:49.517Z,29.40
2019-02-14T10:59:16.363Z,30.30
2019-02-14T11:01:43.202Z,31.20
2019-02-14T11:04:10.248Z,32.30
2019-02-14T11:06:36.991Z,33.60
2019-02-14T11:09:03.922Z,34.90
2019-02-14T11:11:30.673Z,34.90
2019-02-14T11:13:57.508Z,35.10
2019-02-14T11:16:24.453Z,35.00
2019-02-14T11:18:51.189Z,34.60
2019-02-14T11:21:18.149Z,34.20
2019-02-14T11:23:44.996Z,33.60
2019-02-14T11:26:11.823Z,33.10
2019-02-14T11:28:38.563Z,32.30
2019-02-14T11:31:05.268Z,31.90
2019-02-14T11:33:32.041Z,31.40
2019-02-14T11:35:58.770Z,30.70
2019-02-14T11:38:25.511Z,30.50
2019-02-14T11:40:52.251Z,30.20
2019-02-14T11:43:18.998Z,30.30
2019-02-14T11:45:45.839Z,30.10
2019-02-14T11:48:12.570Z,30.00
2019-02-14T11:50:39.533Z,30.10
2019-02-14T11:53:14.043Z,30.00
2019-02-14T11:55:34.759Z,29.90
2019-02-14T11:58:01.588Z,29.60
2019-02-14T12:00:28.519Z,29.50
2019-02-14T12:02:56.314Z,29.30
2019-02-14T12:05:23.434Z,29.00
2019-02-14T12:07:50.190Z,28.80
2019-02-14T12:10:17.031Z,28.60
2019-02-14T12:12:43.761Z,28.60
2019-02-14T12:15:10.602Z,28.60
2019-02-14T12:17:37.347Z,28.40
2019-02-14T12:20:04.084Z,28.30
2019-02-14T12:22:30.810Z,28.30
2019-02-14T12:24:57.549Z,28.60
2019-02-14T12:27:24.309Z,28.80
2019-02-14T12:29:51.027Z,28.60
2019-02-14T12:32:17.776Z,28.50
2019-02-14T12:34:44.520Z,28.60
2019-02-14T12:37:11.247Z,28.70
2019-02-14T12:39:38.089Z,28.70
2019-02-14T12:42:04.815Z,28.70
2019-02-14T12:44:31.580Z,28.70
2019-02-14T12:46:58.311Z,28.70
2019-02-14T12:49:25.352Z,28.70
2019-02-14T12:51:52.315Z,28.70
2019-02-14T12:54:19.049Z,28.60
2019-02-14T12:56:45.794Z,28.60
2019-02-14T12:59:12.543Z,28.50
2019-02-14T13:01:39.262Z,28.50
2019-02-14T13:04:06.075Z,28.50
2019-02-14T13:06:32.845Z,28.40
2019-02-14T13:08:59.688Z,28.40
2019-02-14T13:11:26.531Z,28.40
2019-02-14T13:13:53.378Z,28.20
2019-02-14T13:16:20.199Z,28.20
2019-02-14T13:18:46.942Z,28.10
2019-02-14T13:21:13.695Z,28.00
2019-02-14T13:23:40.419Z,27.90
2019-02-14T13:26:07.158Z,27.90
2019-02-14T13:28:33.998Z,27.80
2019-02-14T13:31:00.774Z,28.00
2019-02-14T13:33:27.594Z,27.90
2019-02-14T13:35:54.478Z,27.80
2019-02-14T13:38:21.167Z,27.80
2019-02-14T13:40:48.012Z,27.70
2019-02-14T13:43:14.743Z,27.50
2019-02-14T13:45:41.489Z,27.50
2019-02-14T13:48:08.348Z,27.50
2019-02-14T13:50:35.076Z,27.60
2019-02-14T13:53:02.036Z,27.70
2019-02-14T13:55:28.857Z,27.70
2019-02-14T13:57:55.590Z,27.80
2019-02-14T14:00:22.359Z,28.20
2019-02-14T14:02:49.088Z,28.80
2019-02-14T14:05:16.022Z,29.40
2019-02-14T14:07:42.862Z,30.20
2019-02-14T14:10:09.599Z,30.80
2019-02-14T14:12:36.440Z,31.10
2019-02-14T14:15:03.181Z,31.60
2019-02-14T14:17:30.060Z,32.30
2019-02-14T14:19:56.862Z,32.90
2019-02-14T14:22:23.591Z,33.40
2019-02-14T14:24:50.333Z,34.00
2019-02-14T14:27:17.089Z,34.20
2019-02-14T14:29:44.015Z,34.30
2019-02-14T14:32:10.651Z,34.00
2019-02-14T14:34:37.289Z,34.00
2019-02-14T14:37:04.039Z,34.00
2019-02-14T14:39:30.882Z,34.00
2019-02-14T14:41:57.723Z,33.90
2019-02-14T14:44:24.960Z,33.80
2019-02-14T14:46:51.712Z,33.50
2019-02-14T14:49:18.553Z,33.00
2019-02-14T14:51:45.261Z,32.40
2019-02-14T14:54:12.035Z,31.90
2019-02-14T14:56:38.976Z,31.20
2019-02-14T14:59:05.763Z,30.80
2019-02-14T15:01:32.917Z,30.50
2019-02-14T15:03:59.760Z,30.30
2019-02-14T15:06:26.548Z,30.20
2019-02-14T15:08:53.278Z,30.00
2019-02-14T15:11:19.923Z,29.60
2019-02-14T15:13:46.767Z,29.40
2019-02-14T15:16:13.712Z,29.00
2019-02-14T15:18:40.544Z,28.60
2019-02-14T15:21:07.280Z,28.30
2019-02-14T15:23:34.032Z,28.10
2019-02-14T15:26:00.881Z,28.00
2019-02-14T15:28:27.612Z,27.80
2019-02-14T15:30:54.403Z,27.60
2019-02-14T15:33:21.186Z,27.40
2019-02-14T15:35:48.039Z,27.30
2019-02-14T15:38:14.775Z,27.20
2019-02-14T15:40:41.516Z,27.10
2019-02-14T15:43:08.355Z,27.00
2019-02-14T15:45:35.090Z,26.90
2019-02-14T15:48:01.821Z,26.80
2019-02-14T15:50:29.910Z,26.60
2019-02-14T15:52:57.057Z,26.50
2019-02-14T15:55:24.293Z,26.20
2019-02-14T15:57:51.217Z,26.10
2019-02-14T16:00:18.021Z,25.90
2019-02-14T16:02:44.931Z,25.60
2019-02-14T16:05:11.685Z,25.50
2019-02-14T16:07:39.507Z,25.40
2019-02-14T16:10:06.980Z,25.40
2019-02-14T16:12:33.735Z,25.30
2019-02-14T16:15:00.457Z,25.30
2019-02-14T16:17:27.198Z,25.30
2019-02-14T16:19:55.514Z,25.20
2019-02-14T16:22:29.862Z,25.20
2019-02-14T16:24:50.770Z,25.20
2019-02-14T16:27:17.552Z,25.10
2019-02-14T16:29:44.302Z,25.00
2019-02-14T16:32:11.124Z,24.90
2019-02-14T16:34:38.064Z,24.80
2019-02-14T16:37:04.816Z,24.70
2019-02-14T16:39:31.511Z,24.70
2019-02-14T16:41:58.175Z,24.60
2019-02-14T16:44:25.324Z,24.50
2019-02-14T16:46:52.076Z,24.50
2019-02-14T16:49:18.807Z,24.50
2019-02-14T16:51:45.548Z,24.60
2019-02-14T16:54:12.297Z,24.50
2019-02-14T16:56:39.134Z,24.20
2019-02-14T16:59:05.908Z,24.20
2019-02-14T17:01:34.762Z,24.10
2019-02-14T17:04:01.596Z,24.00
2019-02-14T17:06:28.339Z,24.00
2019-02-14T17:08:55.185Z,24.00
2019-02-14T17:11:22.013Z,24.00
2019-02-14T17:13:48.974Z,24.00
2019-02-14T17:16:15.826Z,24.00
2019-02-14T17:18:42.709Z,24.00
2019-02-14T17:21:09.514Z,23.90
2019-02-14T17:23:36.337Z,23.90
2019-02-14T17:26:03.193Z,23.90
2019-02-14T17:28:30.029Z,23.90
2019-02-14T17:30:56.754Z,23.80
2019-02-14T17:33:23.596Z,23.80
2019-02-14T17:35:50.355Z,23.90
2019-02-14T17:38:17.196Z,24.00
2019-02-14T17:40:45.976Z,23.90
2019-02-14T17:43:12.397Z,23.90
2019-02-14T17:45:39.233Z,23.90
2019-02-14T17:48:06.289Z,24.00
2019-02-14T17:50:33.034Z,24.00
2019-02-14T17:52:59.770Z,24.00
2019-02-14T17:55:26.711Z,24.10
2019-02-14T17:57:53.511Z,24.10
2019-02-14T18:00:20.912Z,24.20
2019-02-14T18:02:47.619Z,24.20
2019-02-14T18:05:14.491Z,24.20
2019-02-14T18:07:41.331Z,24.30
2019-02-14T18:10:08.167Z,24.40
2019-02-14T18:12:35.103Z,24.40
2019-02-14T18:15:02.010Z,24.40
2019-02-14T18:17:28.789Z,24.40
2019-02-14T18:19:55.875Z,24.40
2019-02-14T18:22:22.681Z,24.40
2019-02-14T18:24:49.545Z,24.30
2019-02-14T18:27:16.465Z,24.30
2019-02-14T18:29:43.471Z,24.40
2019-02-14T18:32:10.167Z,24.30
2019-02-14T18:34:36.995Z,24.40
2019-02-14T18:37:03.843Z,24.40
2019-02-14T18:39:31.708Z,24.50
2019-02-14T18:41:58.595Z,24.50
2019-02-14T18:44:25.350Z,24.50
2019-02-14T18:46:52.144Z,24.60
2019-02-14T18:49:19.307Z,24.60
2019-02-14T18:51:46.188Z,24.60
2019-02-14T18:54:12.963Z,24.60
2019-02-14T18:56:39.796Z,24.60
2019-02-14T18:59:06.652Z,24.50
2019-02-14T19:01:33.372Z,24.50
2019-02-14T19:04:00.114Z,24.60
2019-02-14T19:06:26.869Z,24.50
2019-02-14T19:08:53.797Z,24.50
2019-02-14T19:11:20.854Z,24.60
2019-02-14T19:13:47.797Z,24.70
2019-02-14T19:16:14.535Z,24.70
2019-02-14T19:18:41.380Z,24.80
2019-02-14T19:21:08.220Z,24.80
2019-02-14T19:23:35.060Z,24.80
2019-02-14T19:26:01.796Z,24.70
2019-02-14T19:28:28.731Z,24.80
2019-02-14T19:30:55.470Z,24.90
2019-02-14T19:33:22.222Z,24.90
2019-02-14T19:35:49.002Z,24.90
2019-02-14T19:38:15.800Z,24.90
2019-02-14T19:40:42.531Z,24.90
2019-02-14T19:43:09.291Z,25.00
2019-02-14T19:45:36.908Z,25.10
2019-02-14T19:48:03.979Z,25.10
2019-02-14T19:50:30.682Z,25.10
2019-02-14T19:52:57.472Z,25.10
2019-02-14T19:55:24.372Z,25.20
2019-02-14T19:57:51.147Z,25.20
2019-02-14T20:00:18.003Z,25.20
2019-02-14T20:02:44.931Z,25.20
2019-02-14T20:05:11.680Z,25.20
2019-02-14T20:07:38.409Z,25.20
2019-02-14T20:10:05.143Z,25.20
2019-02-14T20:12:31.903Z,25.20
2019-02-14T20:14:58.739Z,25.20
2019-02-14T20:17:25.466Z,25.20
2019-02-14T20:19:52.218Z,25.20
2019-02-14T20:22:18.960Z,25.20
2019-02-14T20:24:45.792Z,25.10
2019-02-14T20:27:12.628Z,25.10
2019-02-14T20:29:39.479Z,25.10
2019-02-14T20:32:06.219Z,25.20
2019-02-14T20:34:33.241Z,25.00
2019-02-14T20:37:00.109Z,24.90
2019-02-14T20:39:26.847Z,24.70
2019-02-14T20:41:53.794Z,24.70
2019-02-14T20:44:20.632Z,24.80
2019-02-14T20:46:47.386Z,24.70
2019-02-14T20:49:14.209Z,24.80
2019-02-14T20:51:40.945Z,24.90
2019-02-14T20:54:07.690Z,25.00
2019-02-14T20:56:34.535Z,25.10
2019-02-14T20:59:01.275Z,25.20
2019-02-14T21:01:28.120Z,25.30
2019-02-14T21:03:54.840Z,25.30
2019-02-14T21:06:21.482Z,25.40
2019-02-14T21:08:48.228Z,25.40
2019-02-14T21:11:15.071Z,25.50
2019-02-14T21:13:41.915Z,25.50
2019-02-14T21:16:08.643Z,25.50
2019-02-14T21:18:35.386Z,25.60
2019-02-14T21:21:02.130Z,25.60
2019-02-14T21:23:28.864Z,25.60
2019-02-14T21:25:55.715Z,25.70
2019-02-14T21:28:22.449Z,25.70
2019-02-14T21:30:49.393Z,25.70
2019-02-14T21:33:16.134Z,25.80
2019-02-14T21:35:42.866Z,25.80
2019-02-14T21:38:09.731Z,25.80
2019-02-14T21:40:36.450Z,25.80
2019-02-14T21:43:03.270Z,25.80
2019-02-14T21:45:30.263Z,25.80
2019-02-14T21:47:57.105Z,25.70
2019-02-14T21:50:23.919Z,25.70
2019-02-14T21:52:50.654Z,25.60
2019-02-14T21:55:18.144Z,25.60
2019-02-14T21:57:45.378Z,25.50
2019-02-14T22:00:12.222Z,25.50
2019-02-14T22:02:39.072Z,25.50
2019-02-14T22:05:05.966Z,25.50
2019-02-14T22:07:34.916Z,25.50
2019-02-14T22:10:01.457Z,25.50
2019-02-14T22:12:39.772Z,25.50
2019-02-14T22:14:58.237Z,25.50
2019-02-14T22:17:25.182Z,25.50
2019-02-14T22:19:52.024Z,25.50
2019-02-14T22:22:18.808Z,25.50
2019-02-14T22:24:45.549Z,25.50
2019-02-14T22:27:12.375Z,25.40
2019-02-14T22:29:39.101Z,25.40
2019-02-14T22:32:06.058Z,25.40
2019-02-14T22:34:33.001Z,25.40
2019-02-14T22:36:59.845Z,25.40
2019-02-14T22:39:26.692Z,25.40
2019-02-14T22:41:53.638Z,25.30
2019-02-14T22:44:20.483Z,25.30
2019-02-14T22:46:47.222Z,25.30
2019-02-14T22:49:14.061Z,25.40
2019-02-14T22:51:40.904Z,25.40
2019-02-14T22:54:07.872Z,25.40
2019-02-14T22:56:34.689Z,25.40
2019-02-14T22:59:01.418Z,25.40
2019-02-14T23:01:28.158Z,25.50
2019-02-14T23:03:55.006Z,25.50
2019-02-14T23:06:22.012Z,25.50
2019-02-14T23:08:48.796Z,25.50
2019-02-14T23:11:15.530Z,25.50
2019-02-14T23:13:42.376Z,25.50
2019-02-14T23:16:09.616Z,25.50
2019-02-14T23:18:36.364Z,25.50
2019-02-14T23:21:03.062Z,25.50
2019-02-14T23:23:29.741Z,25.60
2019-02-14T23:25:56.678Z,25.50
2019-02-14T23:28:23.528Z,25.50
2019-02-14T23:30:50.259Z,25.50
2019-02-14T23:33:17.234Z,25.50
2019-02-14T23:35:44.050Z,25.50
2019-02-14T23:38:10.782Z,25.50
2019-02-14T23:40:37.531Z,25.50
2019-02-14T23:43:05.028Z,25.50
2019-02-14T23:45:31.920Z,25.40
2019-02-14T23:47:58.662Z,25.50
2019-02-14T23:50:25.410Z,25.50
2019-02-14T23:52:52.854Z,25.50
2019-02-14T23:55:19.603Z,25.50
2019-02-14T23:57:46.333Z,25.50
